Time;durP1;ratioP1;P1;durP2;ratioP2;P2;SDS_P1;SDS_P2;PMS_P1;PMS_P2;Temp;Humidity;BMP_temperature;BMP_pressure;BME280_temperature;BME280_humidity;BME280_pressure;Samples;Min_cycle;Max_cycle;Signal;HPM_P1;HPM_P2
2023/11/16 00:00:12;;;;;;;21.60;4.70;;;7.40;99.90;;;;;;4894648;28;90240;-89
2023/11/16 00:02:44;;;;;;;19.08;3.55;;;7.40;99.90;;;;;;4895210;28;88505;-90
2023/11/16 00:05:16;;;;;;;11.68;2.78;;;7.40;99.90;;;;;;4896073;28;89472;-89
2023/11/16 00:07:45;;;;;;;17.17;3.00;;;7.50;99.90;;;;;;4895685;28;90632;-90
2023/11/16 00:10:14;;;;;;;14.43;3.33;;;7.50;99.90;;;;;;4911898;28;88975;-91
2023/11/16 00:12:40;;;;;;;17.52;3.83;;;7.50;99.90;;;;;;4896036;28;88187;-92
2023/11/16 00:15:06;;;;;;;16.40;2.72;;;7.50;99.90;;;;;;4892060;28;90092;-91
2023/11/16 00:17:33;;;;;;;22.38;3.45;;;7.50;99.90;;;;;;4895909;28;90720;-91
2023/11/16 00:20:04;;;;;;;13.70;3.10;;;7.50;99.90;;;;;;4897190;28;90025;-90
2023/11/16 00:22:30;;;;;;;18.90;3.85;;;7.40;99.90;;;;;;4896025;28;88022;-92
2023/11/16 00:24:55;;;;;;;10.82;2.55;;;7.40;99.90;;;;;;4893672;28;87996;-92
2023/11/16 00:27:21;;;;;;;16.50;2.92;;;7.40;99.90;;;;;;4894662;28;91609;-90
2023/11/16 00:29:47;;;;;;;16.98;2.63;;;7.40;99.90;;;;;;4909351;28;90036;-91
2023/11/16 00:32:13;;;;;;;13.93;2.83;;;7.40;99.90;;;;;;4893255;28;87831;-90
2023/11/16 00:34:40;;;;;;;11.88;2.95;;;7.40;99.90;;;;;;4893648;28;87873;-91
2023/11/16 00:37:06;;;;;;;14.85;2.67;;;7.40;99.90;;;;;;4895777;28;90211;-93
2023/11/16 00:39:32;;;;;;;8.93;2.22;;;7.40;99.90;;;;;;4894285;28;89791;-91
2023/11/16 00:41:59;;;;;;;18.48;3.75;;;7.40;99.90;;;;;;4896607;28;87526;-89
2023/11/16 00:44:25;;;;;;;14.40;3.50;;;7.30;99.90;;;;;;4897359;28;88435;-90
2023/11/16 00:46:52;;;;;;;16.33;2.90;;;7.40;99.90;;;;;;4900869;28;90539;-89
2023/11/16 00:49:18;;;;;;;12.90;3.25;;;7.30;99.90;;;;;;4898394;28;87820;-91
2023/11/16 00:51:44;;;;;;;18.90;3.63;;;7.30;99.90;;;;;;4898589;28;88707;-93
2023/11/16 00:54:12;;;;;;;17.92;3.47;;;7.30;99.90;;;;;;4896966;28;89156;-91
2023/11/16 00:56:39;;;;;;;18.77;3.10;;;7.40;99.90;;;;;;4897233;28;88882;-91
2023/11/16 00:59:10;;;;;;;11.32;2.47;;;7.40;99.90;;;;;;4916498;28;89307;-91
2023/11/16 01:01:37;;;;;;;14.95;3.17;;;7.30;99.90;;;;;;4899086;28;87459;-91
2023/11/16 01:04:04;;;;;;;15.95;2.47;;;7.30;99.90;;;;;;4898795;28;88386;-89
2023/11/16 01:06:31;;;;;;;16.27;3.00;;;7.30;99.90;;;;;;4897500;28;88480;-89
2023/11/16 01:08:57;;;;;;;14.35;2.60;;;7.30;99.90;;;;;;4897916;28;90391;-90
2023/11/16 01:11:27;;;;;;;10.88;2.58;;;7.30;99.90;;;;;;4895656;28;87944;-90
2023/11/16 01:13:57;;;;;;;10.80;2.63;;;7.30;99.90;;;;;;4896692;28;87641;-91
2023/11/16 01:16:30;;;;;;;17.05;3.35;;;7.30;99.90;;;;;;4898368;28;90419;-93
2023/11/16 01:18:56;;;;;;;14.40;2.33;;;7.30;99.90;;;;;;4896366;28;88916;-92
2023/11/16 01:21:22;;;;;;;14.95;2.90;;;7.30;99.90;;;;;;4900898;28;87604;-91
2023/11/16 01:23:48;;;;;;;16.83;3.00;;;7.30;99.90;;;;;;4897780;28;88590;-91
2023/11/16 01:26:17;;;;;;;23.67;4.15;;;7.30;99.90;;;;;;4899077;28;87851;-91
2023/11/16 01:28:46;;;;;;;22.20;3.22;;;7.30;99.90;;;;;;4915290;28;88075;-91
2023/11/16 01:31:21;;;;;;;19.65;2.80;;;7.30;99.90;;;;;;4914114;28;88038;-91
2023/11/16 01:33:46;;;;;;;18.30;3.58;;;7.30;99.90;;;;;;4896766;28;89527;-93
2023/11/16 01:36:13;;;;;;;13.05;2.38;;;7.30;99.90;;;;;;4897583;28;89865;-93
2023/11/16 01:38:42;;;;;;;13.27;2.70;;;7.30;99.90;;;;;;4898757;28;88768;-90
2023/11/16 01:41:09;;;;;;;15.00;2.45;;;7.30;99.90;;;;;;4907365;28;88164;-92
2023/11/16 01:43:36;;;;;;;16.23;2.40;;;7.30;99.90;;;;;;4898125;28;87417;-93
2023/11/16 01:46:06;;;;;;;11.48;3.55;;;7.30;99.90;;;;;;4898223;28;88251;-90
2023/11/16 01:48:36;;;;;;;17.85;3.47;;;7.30;99.90;;;;;;4896067;28;89294;-92
2023/11/16 01:51:04;;;;;;;18.30;2.70;;;7.30;99.90;;;;;;4890587;28;88505;-89
2023/11/16 01:53:34;;;;;;;15.35;2.42;;;7.30;99.90;;;;;;4899868;28;88102;-90
2023/11/16 01:56:01;;;;;;;18.00;2.95;;;7.30;99.90;;;;;;4898629;28;87704;-92
2023/11/16 01:58:27;;;;;;;14.57;2.42;;;7.30;99.90;;;;;;4914139;28;90237;-91
2023/11/16 02:00:54;;;;;;;17.48;3.10;;;7.20;99.90;;;;;;4896682;28;87550;-91
2023/11/16 02:03:20;;;;;;;20.30;2.80;;;7.20;99.90;;;;;;4899797;28;88295;-91
2023/11/16 02:05:46;;;;;;;16.35;3.40;;;7.30;99.90;;;;;;4895548;28;90120;-93
2023/11/16 02:08:11;;;;;;;21.92;4.57;;;7.30;99.90;;;;;;4896138;28;90188;-90
2023/11/16 02:10:38;;;;;;;12.40;2.35;;;7.30;99.90;;;;;;4897275;28;87648;-91
2023/11/16 02:13:17;;;;;;;16.80;4.68;;;7.30;99.90;;;;;;4897502;28;91773;-91
2023/11/16 02:15:52;;;;;;;15.05;2.65;;;7.20;99.90;;;;;;4896987;28;89557;-91
2023/11/16 02:18:18;;;;;;;12.45;2.65;;;7.30;99.90;;;;;;4894693;28;88993;-90
2023/11/16 02:20:47;;;;;;;11.77;2.92;;;7.20;99.90;;;;;;4897351;28;88145;-91
2023/11/16 02:23:17;;;;;;;14.80;3.15;;;7.30;99.90;;;;;;4895287;28;87943;-90
2023/11/16 02:25:47;;;;;;;15.95;2.40;;;7.30;99.90;;;;;;4895914;28;90261;-94
2023/11/16 02:28:13;;;;;;;19.83;3.40;;;7.30;99.90;;;;;;4899504;28;89873;-92
2023/11/16 02:30:40;;;;;;;14.55;3.88;;;7.20;99.90;;;;;;4894627;28;89084;-91
2023/11/16 02:33:07;;;;;;;20.00;2.55;;;7.20;99.90;;;;;;4898442;28;87101;-91
2023/11/16 02:35:33;;;;;;;15.38;3.20;;;7.20;99.90;;;;;;4895340;28;90375;-93
2023/11/16 02:37:59;;;;;;;16.30;2.70;;;7.20;99.90;;;;;;4894576;28;88788;-91
2023/11/16 02:40:26;;;;;;;21.15;3.60;;;7.20;99.90;;;;;;4896991;28;87978;-90
2023/11/16 02:42:52;;;;;;;14.23;2.22;;;7.20;99.90;;;;;;4911410;28;88171;-90
2023/11/16 02:45:18;;;;;;;11.80;2.40;;;7.20;99.90;;;;;;4895725;28;87784;-93
2023/11/16 02:47:46;;;;;;;14.82;3.67;;;7.20;99.90;;;;;;4896420;28;89861;-91
2023/11/16 02:50:14;;;;;;;14.98;2.67;;;7.20;99.90;;;;;;4895135;28;88074;-92
2023/11/16 02:52:43;;;;;;;14.73;2.40;;;7.20;99.90;;;;;;4894742;28;87595;-91
2023/11/16 02:55:08;;;;;;;14.80;2.88;;;7.20;99.90;;;;;;4895754;28;92063;-90
2023/11/16 02:57:35;;;;;;;8.98;2.88;;;7.30;99.90;;;;;;4894959;28;88734;-92
2023/11/16 03:00:00;;;;;;;13.73;2.65;;;7.30;99.90;;;;;;4903043;28;88037;-90
2023/11/16 03:02:26;;;;;;;9.98;2.38;;;7.20;99.90;;;;;;4896330;28;89200;-92
2023/11/16 03:04:52;;;;;;;16.33;2.53;;;7.20;99.90;;;;;;4895708;28;91063;-91
2023/11/16 03:07:18;;;;;;;14.65;2.78;;;7.30;99.90;;;;;;4896164;28;88196;-90
2023/11/16 03:09:44;;;;;;;12.48;2.55;;;7.30;99.90;;;;;;4895508;28;88403;-91
2023/11/16 03:12:09;;;;;;;11.25;2.47;;;7.30;99.90;;;;;;4896268;28;88651;-93
2023/11/16 03:14:36;;;;;;;15.82;2.80;;;7.20;99.90;;;;;;4894599;28;90299;-91
2023/11/16 03:17:04;;;;;;;16.45;3.05;;;7.30;99.90;;;;;;4895401;28;90170;-90
2023/11/16 03:19:31;;;;;;;14.77;2.88;;;7.30;99.90;;;;;;4896303;28;88797;-89
2023/11/16 03:21:57;;;;;;;14.07;2.72;;;7.30;99.90;;;;;;4895694;28;88096;-90
2023/11/16 03:24:23;;;;;;;17.48;3.20;;;7.30;99.90;;;;;;4895789;28;89240;-91
2023/11/16 03:26:48;;;;;;;14.10;3.20;;;7.20;99.90;;;;;;4896780;28;90929;-91
2023/11/16 03:29:15;;;;;;;13.98;2.50;;;7.30;99.90;;;;;;4894942;28;87905;-93
2023/11/16 03:31:40;;;;;;;15.60;2.83;;;7.20;99.90;;;;;;4897813;28;87658;-90
2023/11/16 03:34:06;;;;;;;11.98;2.10;;;7.30;99.90;;;;;;4895967;28;89245;-91
2023/11/16 03:36:32;;;;;;;12.50;2.50;;;7.20;99.90;;;;;;4894743;28;89188;-89
2023/11/16 03:38:58;;;;;;;14.07;2.25;;;7.20;99.90;;;;;;4899574;28;87840;-90
2023/11/16 03:41:24;;;;;;;14.68;2.63;;;7.20;99.90;;;;;;4898229;28;87820;-90
2023/11/16 03:43:49;;;;;;;15.95;2.75;;;7.20;99.90;;;;;;4893585;28;90652;-92
2023/11/16 03:46:15;;;;;;;14.20;2.88;;;7.20;99.90;;;;;;4896325;28;89908;-90
2023/11/16 03:48:41;;;;;;;11.48;2.53;;;7.20;99.90;;;;;;4896130;28;87664;-92
2023/11/16 03:51:07;;;;;;;20.55;5.82;;;7.20;99.90;;;;;;4897940;28;87655;-90
2023/11/16 03:53:32;;;;;;;16.35;2.47;;;7.20;99.90;;;;;;4895278;28;88959;-92
2023/11/16 03:55:59;;;;;;;19.80;3.15;;;7.10;99.90;;;;;;4908869;28;89115;-92
2023/11/16 03:58:26;;;;;;;16.23;2.80;;;7.10;99.90;;;;;;4894585;28;87808;-93
2023/11/16 04:00:52;;;;;;;17.90;2.88;;;7.10;99.90;;;;;;4893328;28;87623;-91
2023/11/16 04:03:23;;;;;;;14.88;2.63;;;7.10;99.90;;;;;;4895667;28;89507;-89
2023/11/16 04:05:49;;;;;;;11.30;2.45;;;7.10;99.90;;;;;;4894842;28;90196;-92
2023/11/16 04:08:15;;;;;;;11.88;2.75;;;7.00;99.90;;;;;;4895320;28;88940;-94
2023/11/16 04:10:40;;;;;;;11.00;2.25;;;7.00;99.90;;;;;;4897619;28;88847;-91
2023/11/16 04:13:06;;;;;;;11.35;2.13;;;7.00;99.90;;;;;;4895882;28;90360;-90
2023/11/16 04:15:32;;;;;;;14.00;2.70;;;7.00;99.90;;;;;;4894408;28;87907;-91
2023/11/16 04:17:58;;;;;;;15.32;2.58;;;7.00;99.90;;;;;;4894704;28;88339;-89
2023/11/16 04:20:27;;;;;;;17.50;3.00;;;7.00;99.90;;;;;;4895889;28;87759;-94
2023/11/16 04:22:53;;;;;;;14.45;2.15;;;6.90;99.90;;;;;;4911847;28;89204;-89
2023/11/16 04:25:22;;;;;;;16.52;2.42;;;6.90;99.90;;;;;;4895141;28;89304;-91
2023/11/16 04:27:49;;;;;;;11.80;2.05;;;6.90;99.90;;;;;;4898619;28;87109;-91
2023/11/16 04:30:22;;;;;;;10.23;2.78;;;6.90;99.90;;;;;;4897978;28;87927;-95
2023/11/16 04:32:49;;;;;;;12.43;2.17;;;6.90;99.90;;;;;;4895299;28;91381;-91
2023/11/16 04:35:15;;;;;;;17.45;2.63;;;6.80;99.90;;;;;;4893894;28;88872;-90
2023/11/16 04:37:42;;;;;;;13.82;2.30;;;6.80;99.90;;;;;;4895964;28;87980;-91
2023/11/16 04:40:13;;;;;;;17.90;2.97;;;6.80;99.90;;;;;;4897357;28;89515;-92
2023/11/16 04:42:43;;;;;;;20.40;2.58;;;6.80;99.90;;;;;;4895499;28;90550;-92
2023/11/16 04:45:14;;;;;;;16.02;2.35;;;6.80;99.90;;;;;;4894358;28;89889;-91
2023/11/16 04:47:43;;;;;;;14.48;3.00;;;6.80;99.90;;;;;;4894926;28;87741;-91
2023/11/16 04:50:14;;;;;;;6.85;2.40;;;6.80;99.90;;;;;;4886404;28;86793;-90
2023/11/16 04:52:40;;;;;;;14.20;2.33;;;6.70;99.90;;;;;;4896932;28;89377;-90
2023/11/16 04:55:06;;;;;;;10.00;2.17;;;6.80;99.90;;;;;;4895050;28;87979;-90
2023/11/16 04:57:32;;;;;;;12.23;2.45;;;6.70;99.90;;;;;;4892100;28;88815;-90
2023/11/16 04:59:58;;;;;;;11.90;2.58;;;6.70;99.90;;;;;;4894633;28;87362;-91
2023/11/16 05:02:24;;;;;;;17.92;2.47;;;6.70;99.90;;;;;;4895499;28;89057;-94
2023/11/16 05:04:50;;;;;;;14.90;2.38;;;6.70;99.90;;;;;;4893490;28;89097;-90
2023/11/16 05:07:16;;;;;;;15.00;2.83;;;6.70;99.90;;;;;;4895049;28;88246;-90
2023/11/16 05:09:42;;;;;;;18.63;3.30;;;6.60;99.90;;;;;;4894167;28;89814;-90
2023/11/16 05:12:08;;;;;;;14.20;2.70;;;6.60;99.90;;;;;;4896283;28;88233;-93
2023/11/16 05:14:37;;;;;;;17.77;3.40;;;6.60;99.90;;;;;;4891751;28;90216;-92
2023/11/16 05:17:05;;;;;;;12.38;2.60;;;6.60;99.90;;;;;;4895201;28;87982;-91
2023/11/16 05:19:31;;;;;;;13.35;2.83;;;6.50;99.90;;;;;;4893920;28;87510;-93
2023/11/16 05:21:57;;;;;;;8.88;2.85;;;6.50;99.90;;;;;;4893920;28;89368;-93
2023/11/16 05:24:24;;;;;;;12.77;3.58;;;6.40;99.90;;;;;;4895278;28;91152;-92
2023/11/16 05:26:50;;;;;;;15.13;2.70;;;6.40;99.90;;;;;;4895823;28;87766;-93
2023/11/16 05:29:15;;;;;;;16.63;3.75;;;6.30;99.90;;;;;;4894851;28;87887;-90
2023/11/16 05:31:41;;;;;;;17.90;4.00;;;6.30;99.90;;;;;;4896918;28;88259;-92
2023/11/16 05:34:08;;;;;;;13.38;3.15;;;6.30;99.90;;;;;;4896907;28;88004;-92
2023/11/16 05:36:34;;;;;;;14.23;4.63;;;6.20;99.90;;;;;;4896669;28;94562;-91
2023/11/16 05:39:00;;;;;;;11.25;2.75;;;6.20;99.90;;;;;;4894343;28;88367;-91
2023/11/16 05:41:27;;;;;;;11.80;2.63;;;6.10;99.90;;;;;;4896628;28;90377;-91
2023/11/16 05:43:53;;;;;;;10.75;2.38;;;6.10;99.90;;;;;;4896548;28;90017;-92
2023/11/16 05:46:19;;;;;;;11.65;2.72;;;6.10;99.90;;;;;;4899817;28;89370;-91
2023/11/16 05:48:45;;;;;;;19.95;3.65;;;6.00;99.90;;;;;;4897611;28;89315;-91
2023/11/16 05:51:11;;;;;;;16.90;3.45;;;6.00;99.90;;;;;;4897630;28;89783;-92
2023/11/16 05:53:37;;;;;;;12.07;2.95;;;5.90;99.90;;;;;;4895508;28;89047;-92
2023/11/16 05:56:04;;;;;;;17.77;3.03;;;5.90;99.90;;;;;;4897896;28;87643;-91
2023/11/16 05:58:29;;;;;;;7.72;2.13;;;5.90;99.90;;;;;;4899527;28;88198;-90
2023/11/16 06:00:55;;;;;;;17.42;3.10;;;5.80;99.90;;;;;;4896355;28;90310;-92
2023/11/16 06:03:26;;;;;;;8.80;2.08;;;5.80;99.90;;;;;;4896521;28;87500;-91
2023/11/16 06:05:53;;;;;;;12.52;2.97;;;5.80;99.90;;;;;;4904771;28;87857;-92
2023/11/16 06:08:19;;;;;;;12.93;2.45;;;5.70;99.90;;;;;;4896551;28;88013;-91
2023/11/16 06:10:44;;;;;;;7.05;2.00;;;5.60;99.90;;;;;;4897499;28;91931;-93
2023/11/16 06:13:10;;;;;;;10.77;4.18;;;5.60;99.90;;;;;;4897322;28;90572;-92
2023/11/16 06:15:36;;;;;;;13.25;2.47;;;5.50;99.90;;;;;;4897951;28;87907;-92
2023/11/16 06:18:02;;;;;;;13.88;3.97;;;5.40;99.90;;;;;;4901398;28;88183;-91
2023/11/16 06:20:31;;;;;;;12.48;3.00;;;5.40;99.90;;;;;;4902722;28;89278;-89
2023/11/16 06:22:57;;;;;;;7.95;2.72;;;5.30;99.90;;;;;;4906111;28;88400;-93
2023/11/16 06:25:22;;;;;;;6.93;2.17;;;5.20;99.90;;;;;;4906396;28;87608;-90
2023/11/16 06:27:50;;;;;;;6.68;2.75;;;5.10;99.90;;;;;;4907399;28;88020;-90
2023/11/16 06:30:15;;;;;;;8.73;2.60;;;5.00;99.90;;;;;;4903379;28;90548;-90
2023/11/16 06:32:44;;;;;;;12.88;3.08;;;5.00;99.90;;;;;;4902543;28;89117;-91
2023/11/16 06:35:11;;;;;;;9.50;3.20;;;4.90;99.90;;;;;;4903211;28;88862;-89
2023/11/16 06:37:37;;;;;;;4.93;2.17;;;4.90;99.90;;;;;;4901675;28;87246;-92
2023/11/16 06:40:04;;;;;;;8.50;2.17;;;4.80;99.90;;;;;;4897043;28;87763;-91
2023/11/16 06:42:30;;;;;;;9.35;2.30;;;4.80;99.90;;;;;;4899011;28;89068;-92
2023/11/16 06:45:06;;;;;;;11.52;3.15;;;4.80;99.90;;;;;;4900613;28;87657;-91
2023/11/16 06:47:32;;;;;;;9.98;2.80;;;4.70;99.90;;;;;;4900234;28;89584;-91
2023/11/16 06:49:58;;;;;;;5.63;2.40;;;4.70;99.90;;;;;;4899770;28;90396;-94
2023/11/16 06:52:26;;;;;;;10.70;2.60;;;4.70;99.90;;;;;;4901597;28;89097;-92
2023/11/16 06:54:53;;;;;;;23.13;3.47;;;4.70;99.90;;;;;;4899206;28;88300;-92
2023/11/16 06:57:22;;;;;;;14.10;2.80;;;4.60;99.90;;;;;;4897099;28;88486;-91
2023/11/16 06:59:53;;;;;;;15.30;3.25;;;4.60;99.90;;;;;;4897541;28;89812;-92
2023/11/16 07:02:22;;;;;;;12.18;2.72;;;4.60;99.90;;;;;;4898771;28;90112;-91
2023/11/16 07:04:48;;;;;;;7.40;2.67;;;4.60;99.90;;;;;;4902156;28;87576;-89
2023/11/16 07:07:15;;;;;;;7.70;2.00;;;4.60;99.90;;;;;;4898224;28;87718;-89
2023/11/16 07:09:49;;;;;;;9.05;2.67;;;4.60;99.90;;;;;;4897800;28;91128;-89
2023/11/16 07:12:21;;;;;;;6.97;2.33;;;4.50;99.90;;;;;;4895991;28;88880;-91
2023/11/16 07:14:48;;;;;;;11.80;2.90;;;4.50;99.90;;;;;;4914339;28;87540;-89
2023/11/16 07:17:14;;;;;;;11.85;3.25;;;4.50;99.90;;;;;;4897378;28;88357;-91
2023/11/16 07:19:40;;;;;;;22.17;4.68;;;4.50;99.90;;;;;;4910790;28;90408;-90
2023/11/16 07:22:08;;;;;;;9.85;2.67;;;4.40;99.90;;;;;;4898472;28;89947;-89
2023/11/16 07:24:33;;;;;;;11.85;3.10;;;4.40;99.90;;;;;;4895752;28;90294;-90
2023/11/16 07:27:01;;;;;;;10.13;2.97;;;4.40;99.90;;;;;;4899570;28;88915;-89
2023/11/16 07:29:27;;;;;;;10.40;4.07;;;4.40;99.90;;;;;;4897346;28;90759;-90
2023/11/16 07:31:53;;;;;;;8.82;3.60;;;4.40;99.90;;;;;;4901111;28;89039;-91
2023/11/16 07:34:18;;;;;;;26.13;4.75;;;4.40;99.90;;;;;;4897904;28;87554;-91
2023/11/16 07:36:44;;;;;;;41.72;4.28;;;4.40;99.90;;;;;;4894658;28;88432;-90
2023/11/16 07:39:12;;;;;;;10.32;3.65;;;4.40;99.90;;;;;;4898779;28;88108;-90
2023/11/16 07:41:38;;;;;;;19.40;3.10;;;4.40;99.90;;;;;;4894394;28;89165;-92
2023/11/16 07:44:05;;;;;;;29.42;4.10;;;4.40;99.90;;;;;;4895923;28;87818;-90
2023/11/16 07:46:31;;;;;;;13.02;3.38;;;4.40;99.90;;;;;;4910527;28;88207;-90
2023/11/16 07:48:57;;;;;;;16.00;3.28;;;4.40;99.90;;;;;;4897166;28;91309;-92
2023/11/16 07:51:32;;;;;;;19.48;4.63;;;4.40;99.90;;;;;;4892570;28;91278;-88
2023/11/16 07:53:58;;;;;;;19.25;3.80;;;4.50;99.90;;;;;;4895988;28;87963;-91
2023/11/16 07:56:24;;;;;;;27.20;4.60;;;4.50;99.90;;;;;;4894935;28;88110;-90
2023/11/16 07:58:52;;;;;;;44.90;7.93;;;4.60;99.90;;;;;;4891824;28;88542;-92
2023/11/16 08:01:21;;;;;;;31.02;5.80;;;4.60;99.90;;;;;;4896179;28;89298;-89
2023/11/16 08:03:55;;;;;;;24.77;4.45;;;4.70;99.90;;;;;;4896971;28;87756;-92
2023/11/16 08:06:25;;;;;;;13.05;3.58;;;4.70;99.90;;;;;;4901807;28;89508;-90
2023/11/16 08:08:51;;;;;;;19.80;6.68;;;4.80;99.90;;;;;;4899053;28;89794;-91
2023/11/16 08:11:18;;;;;;;16.60;6.65;;;4.90;99.90;;;;;;4897019;28;90255;-91
2023/11/16 08:13:45;;;;;;;15.30;4.50;;;5.00;99.90;;;;;;4896379;28;88892;-91
2023/11/16 08:16:31;;;;;;;10.32;3.50;;;5.10;99.90;;;;;;4895581;28;89222;-91
2023/11/16 08:18:57;;;;;;;10.18;4.20;;;5.20;99.90;;;;;;4893847;28;89672;-87
2023/11/16 08:21:22;;;;;;;18.02;4.43;;;5.30;99.90;;;;;;4887038;28;89473;-91
2023/11/16 08:23:48;;;;;;;10.80;4.60;;;5.40;99.90;;;;;;4888785;28;87726;-94
2023/11/16 08:26:15;;;;;;;14.77;4.93;;;5.50;99.90;;;;;;4886358;28;89377;-93
2023/11/16 08:28:44;;;;;;;15.98;4.68;;;5.60;99.90;;;;;;4907545;28;88200;-92
2023/11/16 08:31:12;;;;;;;14.52;4.78;;;5.70;99.90;;;;;;4893401;28;90566;-94
2023/11/16 08:33:39;;;;;;;14.45;5.32;;;5.80;99.90;;;;;;4888092;28;87444;-91
2023/11/16 08:36:10;;;;;;;11.98;4.63;;;5.90;99.90;;;;;;4888745;28;88269;-90
2023/11/16 08:38:41;;;;;;;12.45;5.00;;;5.90;99.90;;;;;;4887604;28;91729;-87
2023/11/16 08:41:09;;;;;;;11.82;4.28;;;6.00;99.90;;;;;;4884227;28;90278;-86
2023/11/16 08:43:35;;;;;;;18.77;4.78;;;6.10;99.90;;;;;;4895698;28;87446;-92
2023/11/16 08:46:07;;;;;;;12.07;4.53;;;6.10;99.90;;;;;;4909844;28;88437;-92
2023/11/16 08:48:33;;;;;;;9.98;4.38;;;6.20;99.90;;;;;;4917244;28;88763;-92
2023/11/16 08:51:05;;;;;;;14.27;5.25;;;6.30;99.90;;;;;;4883142;28;90152;-93
2023/11/16 08:53:39;;;;;;;10.98;4.82;;;6.30;99.90;;;;;;4899104;28;87991;-90
2023/11/16 08:56:07;;;;;;;16.45;4.57;;;6.40;99.90;;;;;;4906839;28;88846;-93
2023/11/16 08:58:36;;;;;;;19.10;4.30;;;6.40;99.90;;;;;;4903721;28;89210;-90
2023/11/16 09:01:02;;;;;;;16.17;4.28;;;6.50;99.90;;;;;;4899381;28;87861;-89
2023/11/16 09:03:33;;;;;;;11.20;4.15;;;6.50;99.90;;;;;;4893913;28;88916;-88
2023/11/16 09:06:03;;;;;;;10.57;4.18;;;6.60;99.90;;;;;;4901870;28;87602;-89
2023/11/16 09:08:29;;;;;;;16.30;4.13;;;6.60;99.90;;;;;;4901453;28;88775;-89
2023/11/16 09:10:55;;;;;;;12.10;4.35;;;6.70;99.90;;;;;;4898462;28;89987;-89
2023/11/16 09:13:22;;;;;;;15.32;3.88;;;6.70;99.90;;;;;;4898655;28;87180;-91
2023/11/16 09:15:49;;;;;;;21.10;4.75;;;6.80;99.90;;;;;;4894911;28;88352;-92
2023/11/16 09:18:16;;;;;;;15.05;4.03;;;6.90;99.90;;;;;;4900445;28;89307;-92
2023/11/16 09:20:49;;;;;;;13.23;4.03;;;7.00;99.90;;;;;;4899325;28;87893;-94
2023/11/16 09:23:15;;;;;;;10.73;4.30;;;7.00;99.90;;;;;;4900960;28;88405;-92
2023/11/16 09:25:41;;;;;;;10.63;4.10;;;7.10;99.90;;;;;;4901496;28;87461;-93
2023/11/16 09:28:09;;;;;;;16.15;4.72;;;7.10;99.90;;;;;;4899675;28;90021;-89
2023/11/16 09:30:38;;;;;;;16.48;4.50;;;7.20;99.90;;;;;;4898312;28;88804;-90
2023/11/16 09:33:06;;;;;;;12.85;4.40;;;7.30;99.90;;;;;;4904443;28;87063;-93
2023/11/16 09:35:31;;;;;;;15.52;5.68;;;7.30;99.90;;;;;;4897312;28;87752;-87
2023/11/16 09:37:57;;;;;;;11.82;4.47;;;7.40;99.90;;;;;;4899277;28;88052;-92
2023/11/16 09:40:28;;;;;;;10.52;3.70;;;7.40;99.90;;;;;;4904595;28;90808;-91
2023/11/16 09:42:58;;;;;;;11.93;3.92;;;7.50;99.90;;;;;;4898535;28;87243;-91
2023/11/16 09:45:27;;;;;;;13.40;3.75;;;7.50;99.90;;;;;;4895888;28;87214;-90
2023/11/16 09:48:10;;;;;;;15.32;4.30;;;7.60;99.90;;;;;;4906632;28;88707;-89
2023/11/16 09:50:42;;;;;;;16.05;4.70;;;7.60;99.90;;;;;;4896983;28;89364;-90
2023/11/16 09:53:14;;;;;;;14.27;4.45;;;7.70;99.90;;;;;;4899527;28;88578;-89
2023/11/16 09:55:44;;;;;;;25.83;4.45;;;7.70;99.90;;;;;;4894425;28;88472;-89
2023/11/16 09:58:17;;;;;;;17.40;4.45;;;7.80;99.90;;;;;;4894778;28;89795;-91
2023/11/16 10:00:48;;;;;;;19.25;4.85;;;7.90;99.90;;;;;;4885256;28;90431;-91
2023/11/16 10:03:30;;;;;;;19.60;4.72;;;7.90;99.90;;;;;;4919501;28;87710;-92
2023/11/16 10:05:57;;;;;;;21.88;5.15;;;8.00;99.90;;;;;;4895285;28;88113;-89
2023/11/16 10:08:25;;;;;;;9.82;3.85;;;8.00;99.90;;;;;;4898764;28;89456;-89
2023/11/16 10:11:00;;;;;;;17.88;4.55;;;8.10;99.90;;;;;;4885052;28;89189;-89
2023/11/16 10:13:27;;;;;;;11.95;4.35;;;8.20;99.90;;;;;;4897454;28;88052;-92
2023/11/16 10:15:53;;;;;;;18.10;4.97;;;8.20;99.90;;;;;;4893697;28;87820;-90
2023/11/16 10:18:24;;;;;;;15.82;4.15;;;8.30;99.90;;;;;;4888254;28;91167;-90
2023/11/16 10:20:50;;;;;;;23.15;5.95;;;8.30;99.90;;;;;;4897139;28;90253;-89
2023/11/16 10:23:18;;;;;;;17.10;4.63;;;8.40;99.90;;;;;;4897027;28;87704;-89
2023/11/16 10:25:48;;;;;;;10.65;4.57;;;8.40;99.90;;;;;;4895951;28;87914;-90
2023/11/16 10:28:19;;;;;;;15.35;4.03;;;8.50;99.90;;;;;;4897352;28;89604;-90
2023/11/16 10:30:54;;;;;;;16.40;4.22;;;8.50;99.90;;;;;;4894715;28;90086;-91
2023/11/16 10:33:23;;;;;;;15.80;3.72;;;8.50;99.90;;;;;;4894919;28;87301;-87
2023/11/16 10:35:52;;;;;;;17.27;4.72;;;8.60;99.90;;;;;;4898093;28;88578;-92
2023/11/16 10:38:21;;;;;;;17.33;4.50;;;8.60;99.90;;;;;;4894062;28;89117;-92
2023/11/16 10:40:49;;;;;;;16.48;3.88;;;8.60;99.90;;;;;;4894702;28;89841;-90
2023/11/16 10:43:26;;;;;;;15.38;4.60;;;8.60;99.90;;;;;;4897786;28;88724;-90
2023/11/16 10:45:56;;;;;;;12.57;3.90;;;8.70;99.90;;;;;;4898767;28;89451;-91
2023/11/16 10:48:23;;;;;;;19.90;4.47;;;8.70;99.90;;;;;;4911972;28;90413;-91
2023/11/16 10:50:49;;;;;;;14.98;4.30;;;8.70;99.90;;;;;;4896454;28;88801;-91
2023/11/16 10:53:23;;;;;;;15.43;4.00;;;8.70;99.90;;;;;;4896419;28;87807;-91
2023/11/16 10:55:50;;;;;;;11.55;4.20;;;8.80;99.90;;;;;;4896643;28;89610;-92
2023/11/16 10:58:20;;;;;;;12.63;3.60;;;8.80;99.90;;;;;;4899927;28;90447;-90
2023/11/16 11:00:52;;;;;;;10.95;3.97;;;8.90;99.90;;;;;;4897014;28;88946;-94
2023/11/16 11:03:19;;;;;;;12.68;5.07;;;8.90;99.90;;;;;;4896032;28;87763;-91
2023/11/16 11:05:52;;;;;;;15.30;4.68;;;8.90;99.90;;;;;;4898298;28;88325;-91
2023/11/16 11:08:19;;;;;;;14.80;4.07;;;9.00;99.90;;;;;;4897061;28;91586;-90
2023/11/16 11:10:49;;;;;;;14.45;4.47;;;9.00;99.90;;;;;;4895897;28;90077;-93
2023/11/16 11:13:28;;;;;;;11.15;4.22;;;9.00;99.90;;;;;;4898433;28;87722;-92
2023/11/16 11:16:02;;;;;;;11.82;4.20;;;9.00;99.90;;;;;;4894410;28;88787;-90
2023/11/16 11:18:28;;;;;;;15.23;3.95;;;9.00;99.90;;;;;;4893798;28;89479;-91
2023/11/16 11:21:05;;;;;;;13.10;4.95;;;9.10;99.90;;;;;;4896023;28;92354;-91
2023/11/16 11:23:31;;;;;;;11.38;3.75;;;9.10;99.90;;;;;;4896450;28;87814;-91
2023/11/16 11:26:04;;;;;;;12.98;4.03;;;9.10;99.90;;;;;;4897591;28;87824;-95
2023/11/16 11:28:30;;;;;;;16.75;3.53;;;9.10;99.90;;;;;;4895998;28;89523;-91
2023/11/16 11:30:58;;;;;;;10.23;3.70;;;9.10;99.90;;;;;;4894260;28;89165;-91
2023/11/16 11:33:45;;;;;;;17.48;4.78;;;9.10;99.90;;;;;;4894345;28;88966;-91
2023/11/16 11:36:21;;;;;;;9.77;3.00;;;9.10;99.90;;;;;;4894578;28;87833;-91
2023/11/16 11:38:53;;;;;;;17.40;3.72;;;9.10;99.90;;;;;;4892670;28;89228;-92
2023/11/16 11:41:21;;;;;;;14.70;4.45;;;9.10;99.90;;;;;;4897987;28;88700;-93
2023/11/16 11:43:50;;;;;;;13.10;4.45;;;9.20;99.90;;;;;;4896641;28;87381;-90
2023/11/16 11:46:20;;;;;;;12.27;3.55;;;9.20;99.90;;;;;;4896039;28;88471;-88
2023/11/16 11:48:46;;;;;;;11.15;3.70;;;9.20;99.90;;;;;;4894032;28;90872;-92
2023/11/16 11:51:14;;;;;;;20.20;4.68;;;9.20;99.90;;;;;;4895899;28;88732;-91
2023/11/16 11:53:40;;;;;;;21.88;4.43;;;9.20;99.90;;;;;;4895816;28;87364;-90
2023/11/16 11:56:07;;;;;;;9.88;3.60;;;9.20;99.90;;;;;;4893290;28;88742;-92
2023/11/16 11:58:37;;;;;;;12.43;3.90;;;9.20;99.90;;;;;;4894134;28;91198;-94
2023/11/16 12:01:04;;;;;;;14.77;4.10;;;9.20;99.90;;;;;;4896692;28;91327;-92
2023/11/16 12:03:30;;;;;;;16.92;4.28;;;9.30;99.90;;;;;;4893139;28;88425;-92
2023/11/16 12:06:00;;;;;;;16.67;3.80;;;9.30;99.90;;;;;;4887205;28;89142;-90
2023/11/16 12:08:38;;;;;;;11.23;3.60;;;9.30;99.90;;;;;;4897207;28;89712;-89
2023/11/16 12:11:04;;;;;;;12.88;3.67;;;9.30;99.90;;;;;;4896163;28;88837;-91
2023/11/16 12:13:30;;;;;;;14.77;4.38;;;9.30;99.90;;;;;;4908081;28;87287;-90
2023/11/16 12:15:57;;;;;;;14.07;5.45;;;9.40;99.90;;;;;;4895869;28;88330;-92
2023/11/16 12:18:22;;;;;;;10.50;4.00;;;9.40;99.90;;;;;;4886302;28;88947;-90
2023/11/16 12:20:50;;;;;;;18.70;4.80;;;9.40;99.90;;;;;;4898885;28;88340;-87
2023/11/16 12:23:15;;;;;;;14.20;4.13;;;9.40;99.90;;;;;;4903403;28;88568;-91
2023/11/16 12:25:42;;;;;;;14.07;4.28;;;9.40;99.90;;;;;;4893616;28;88512;-90
2023/11/16 12:28:08;;;;;;;14.88;4.93;;;9.40;99.90;;;;;;4895306;28;88087;-91
2023/11/16 12:30:37;;;;;;;16.35;4.97;;;9.50;99.90;;;;;;4892824;28;90218;-91
2023/11/16 12:33:05;;;;;;;21.17;5.65;;;9.50;99.90;;;;;;4895610;28;87930;-91
2023/11/16 12:35:31;;;;;;;25.50;5.55;;;9.40;99.90;;;;;;4894186;28;89817;-91
2023/11/16 12:37:59;;;;;;;17.15;5.13;;;9.50;99.90;;;;;;4896122;28;89167;-92
2023/11/16 12:40:25;;;;;;;11.52;4.80;;;9.50;99.90;;;;;;4897302;28;90615;-89
2023/11/16 12:42:50;;;;;;;15.77;4.78;;;9.50;99.90;;;;;;4896744;28;88308;-93
2023/11/16 12:45:17;;;;;;;12.98;4.97;;;9.60;99.90;;;;;;4895669;28;89490;-90
2023/11/16 12:47:43;;;;;;;19.25;5.13;;;9.60;99.90;;;;;;4897465;28;89976;-90
2023/11/16 12:50:09;;;;;;;18.27;4.93;;;9.70;99.90;;;;;;4896229;28;90140;-92